sensor_id;sensor_type;location;lat;lon;timestamp;pressure;altitude;pressure_sealevel;temperature;humidity
59487;BME280;45298;54.918;73.504;2022-07-29T00:02:00;99150.09;;;17.17;100.00
59487;BME280;45298;54.918;73.504;2022-07-29T00:04:29;99162.19;;;17.21;100.00
59487;BME280;45298;54.918;73.504;2022-07-29T00:06:58;99156.50;;;17.25;100.00
59487;BME280;45298;54.918;73.504;2022-07-29T00:09:26;99158.19;;;17.26;100.00
59487;BME280;45298;54.918;73.504;2022-07-29T00:11:57;99161.38;;;17.21;100.00
59487;BME280;45298;54.918;73.504;2022-07-29T00:14:27;99168.53;;;17.20;100.00
59487;BME280;45298;54.918;73.504;2022-07-29T00:16:56;99163.84;;;17.14;100.00
59487;BME280;45298;54.918;73.504;2022-07-29T00:19:28;99177.28;;;17.22;100.00
59487;BME280;45298;54.918;73.504;2022-07-29T00:21:59;99166.53;;;17.14;100.00
59487;BME280;45298;54.918;73.504;2022-07-29T00:24:28;99166.66;;;17.13;100.00
59487;BME280;45298;54.918;73.504;2022-07-29T00:26:57;99172.53;;;17.16;100.00
59487;BME280;45298;54.918;73.504;2022-07-29T00:29:26;99173.72;;;17.14;100.00
59487;BME280;45298;54.918;73.504;2022-07-29T00:32:01;99171.88;;;17.14;100.00
59487;BME280;45298;54.918;73.504;2022-07-29T00:34:31;99179.94;;;17.14;100.00
59487;BME280;45298;54.918;73.504;2022-07-29T00:37:18;99182.59;;;17.14;100.00
59487;BME280;45298;54.918;73.504;2022-07-29T00:39:47;99193.53;;;17.21;100.00
59487;BME280;45298;54.918;73.504;2022-07-29T00:42:17;99187.28;;;17.12;100.00
59487;BME280;45298;54.918;73.504;2022-07-29T00:44:46;99185.44;;;17.13;100.00
59487;BME280;45298;54.918;73.504;2022-07-29T00:47:15;99181.59;;;17.15;100.00
59487;BME280;45298;54.918;73.504;2022-07-29T00:49:44;99174.19;;;17.09;100.00
59487;BME280;45298;54.918;73.504;2022-07-29T00:52:13;99181.91;;;17.12;100.00
59487;BME280;45298;54.918;73.504;2022-07-29T00:54:43;99176.00;;;17.09;100.00
59487;BME280;45298;54.918;73.504;2022-07-29T00:57:12;99166.47;;;17.06;100.00
59487;BME280;45298;54.918;73.504;2022-07-29T00:59:41;99195.94;;;17.06;100.00
59487;BME280;45298;54.918;73.504;2022-07-29T01:02:10;99193.56;;;17.03;100.00
59487;BME280;45298;54.918;73.504;2022-07-29T01:04:39;99185.47;;;16.95;100.00
59487;BME280;45298;54.918;73.504;2022-07-29T01:07:08;99202.22;;;16.97;100.00
59487;BME280;45298;54.918;73.504;2022-07-29T01:09:38;99203.25;;;16.96;100.00
59487;BME280;45298;54.918;73.504;2022-07-29T01:12:23;99206.22;;;16.92;100.00
59487;BME280;45298;54.918;73.504;2022-07-29T01:14:54;99191.38;;;16.80;100.00
59487;BME280;45298;54.918;73.504;2022-07-29T01:21:07;99202.78;;;16.82;100.00
59487;BME280;45298;54.918;73.504;2022-07-29T01:23:40;99199.41;;;16.80;100.00
59487;BME280;45298;54.918;73.504;2022-07-29T01:34:41;99200.38;;;16.71;100.00
59487;BME280;45298;54.918;73.504;2022-07-29T01:39:51;99203.28;;;16.59;100.00
59487;BME280;45298;54.918;73.504;2022-07-29T01:42:32;99221.47;;;16.74;100.00
59487;BME280;45298;54.918;73.504;2022-07-29T01:45:18;99208.88;;;16.66;100.00
59487;BME280;45298;54.918;73.504;2022-07-29T01:50:37;99222.53;;;16.81;100.00
59487;BME280;45298;54.918;73.504;2022-07-29T01:53:09;99214.13;;;16.76;100.00
59487;BME280;45298;54.918;73.504;2022-07-29T01:55:41;99217.81;;;16.75;100.00
59487;BME280;45298;54.918;73.504;2022-07-29T01:58:12;99225.19;;;16.81;100.00
59487;BME280;45298;54.918;73.504;2022-07-29T02:00:47;99223.28;;;16.73;100.00
59487;BME280;45298;54.918;73.504;2022-07-29T02:03:18;99229.41;;;16.84;100.00
59487;BME280;45298;54.918;73.504;2022-07-29T02:05:48;99236.66;;;16.91;100.00
59487;BME280;45298;54.918;73.504;2022-07-29T02:08:19;99229.25;;;16.85;100.00
59487;BME280;45298;54.918;73.504;2022-07-29T02:10:48;99224.28;;;16.90;100.00
59487;BME280;45298;54.918;73.504;2022-07-29T02:13:19;99220.22;;;16.86;100.00
59487;BME280;45298;54.918;73.504;2022-07-29T02:15:50;99193.03;;;16.73;100.00
59487;BME280;45298;54.918;73.504;2022-07-29T02:18:20;99232.72;;;16.96;100.00
59487;BME280;45298;54.918;73.504;2022-07-29T02:20:53;99223.59;;;16.88;100.00
59487;BME280;45298;54.918;73.504;2022-07-29T02:23:25;99221.59;;;16.90;100.00
59487;BME280;45298;54.918;73.504;2022-07-29T02:25:56;99202.47;;;16.85;100.00
59487;BME280;45298;54.918;73.504;2022-07-29T02:28:27;99222.66;;;16.98;100.00
59487;BME280;45298;54.918;73.504;2022-07-29T02:30:59;99212.41;;;16.93;100.00
59487;BME280;45298;54.918;73.504;2022-07-29T02:33:30;99226.56;;;17.03;100.00
59487;BME280;45298;54.918;73.504;2022-07-29T02:35:59;99200.47;;;16.87;100.00
59487;BME280;45298;54.918;73.504;2022-07-29T02:38:30;99213.31;;;17.02;100.00
59487;BME280;45298;54.918;73.504;2022-07-29T02:41:28;99203.59;;;17.01;100.00
59487;BME280;45298;54.918;73.504;2022-07-29T02:44:03;99216.44;;;17.15;100.00
59487;BME280;45298;54.918;73.504;2022-07-29T02:46:35;99193.25;;;17.06;100.00
59487;BME280;45298;54.918;73.504;2022-07-29T02:52:39;99185.47;;;16.95;100.00
59487;BME280;45298;54.918;73.504;2022-07-29T02:58:08;99214.06;;;17.12;100.00
59487;BME280;45298;54.918;73.504;2022-07-29T03:00:40;99221.13;;;17.21;100.00
59487;BME280;45298;54.918;73.504;2022-07-29T03:03:13;99192.31;;;17.15;100.00
59487;BME280;45298;54.918;73.504;2022-07-29T03:05:43;99190.84;;;17.21;100.00
59487;BME280;45298;54.918;73.504;2022-07-29T03:08:12;99193.72;;;17.28;100.00
59487;BME280;45298;54.918;73.504;2022-07-29T03:10:44;99181.50;;;17.25;100.00
59487;BME280;45298;54.918;73.504;2022-07-29T03:13:14;99196.75;;;17.33;100.00
59487;BME280;45298;54.918;73.504;2022-07-29T03:15:45;99209.81;;;17.36;100.00
59487;BME280;45298;54.918;73.504;2022-07-29T03:18:14;99210.38;;;17.40;100.00
59487;BME280;45298;54.918;73.504;2022-07-29T03:20:43;99192.75;;;17.37;100.00
59487;BME280;45298;54.918;73.504;2022-07-29T03:23:18;99217.63;;;17.56;100.00
59487;BME280;45298;54.918;73.504;2022-07-29T03:25:49;99185.13;;;17.50;100.00
59487;BME280;45298;54.918;73.504;2022-07-29T03:28:18;99193.16;;;17.59;100.00
59487;BME280;45298;54.918;73.504;2022-07-29T03:30:49;99194.41;;;17.73;100.00
59487;BME280;45298;54.918;73.504;2022-07-29T03:33:18;99183.72;;;17.81;100.00
59487;BME280;45298;54.918;73.504;2022-07-29T03:35:49;99191.94;;;17.96;100.00
59487;BME280;45298;54.918;73.504;2022-07-29T03:38:18;99202.41;;;18.07;100.00
59487;BME280;45298;54.918;73.504;2022-07-29T03:40:56;99182.59;;;18.00;100.00
59487;BME280;45298;54.918;73.504;2022-07-29T03:43:35;99197.03;;;18.07;100.00
59487;BME280;45298;54.918;73.504;2022-07-29T03:46:16;99191.03;;;18.14;100.00
59487;BME280;45298;54.918;73.504;2022-07-29T03:48:48;99200.44;;;18.26;100.00
59487;BME280;45298;54.918;73.504;2022-07-29T03:51:18;99193.38;;;18.25;100.00
59487;BME280;45298;54.918;73.504;2022-07-29T03:54:04;99190.88;;;18.23;100.00
59487;BME280;45298;54.918;73.504;2022-07-29T03:56:43;99203.75;;;18.20;100.00
59487;BME280;45298;54.918;73.504;2022-07-29T03:59:17;99215.03;;;18.23;100.00
59487;BME280;45298;54.918;73.504;2022-07-29T04:01:47;99203.09;;;18.18;100.00
59487;BME280;45298;54.918;73.504;2022-07-29T04:04:17;99206.44;;;18.20;100.00
59487;BME280;45298;54.918;73.504;2022-07-29T04:06:46;99197.38;;;18.21;100.00
59487;BME280;45298;54.918;73.504;2022-07-29T04:09:15;99197.56;;;18.27;100.00
59487;BME280;45298;54.918;73.504;2022-07-29T04:11:45;99205.47;;;18.37;100.00
59487;BME280;45298;54.918;73.504;2022-07-29T04:14:34;99191.72;;;18.49;100.00
59487;BME280;45298;54.918;73.504;2022-07-29T04:17:04;99185.34;;;18.50;100.00
59487;BME280;45298;54.918;73.504;2022-07-29T04:19:32;99188.88;;;18.58;100.00
59487;BME280;45298;54.918;73.504;2022-07-29T04:22:01;99192.72;;;18.72;100.00
59487;BME280;45298;54.918;73.504;2022-07-29T04:24:30;99200.59;;;18.91;100.00
59487;BME280;45298;54.918;73.504;2022-07-29T04:26:58;99203.97;;;19.01;100.00
59487;BME280;45298;54.918;73.504;2022-07-29T04:29:27;99202.78;;;19.03;100.00
59487;BME280;45298;54.918;73.504;2022-07-29T04:31:56;99206.81;;;19.08;100.00
59487;BME280;45298;54.918;73.504;2022-07-29T04:34:25;99215.53;;;19.10;99.76
59487;BME280;45298;54.918;73.504;2022-07-29T04:36:55;99205.13;;;19.07;99.47
59487;BME280;45298;54.918;73.504;2022-07-29T04:39:24;99197.41;;;19.03;99.24
59487;BME280;45298;54.918;73.504;2022-07-29T04:41:57;99208.63;;;19.07;98.96
59487;BME280;45298;54.918;73.504;2022-07-29T04:44:25;99208.50;;;19.00;98.79
59487;BME280;45298;54.918;73.504;2022-07-29T04:46:56;99205.13;;;18.98;98.91
59487;BME280;45298;54.918;73.504;2022-07-29T04:49:25;99180.94;;;18.90;98.75
59487;BME280;45298;54.918;73.504;2022-07-29T04:51:54;99199.75;;;19.07;99.06
59487;BME280;45298;54.918;73.504;2022-07-29T04:54:22;99198.56;;;19.17;98.87
59487;BME280;45298;54.918;73.504;2022-07-29T04:56:52;99183.97;;;19.03;98.22
59487;BME280;45298;54.918;73.504;2022-07-29T04:59:21;99199.03;;;19.21;98.63
59487;BME280;45298;54.918;73.504;2022-07-29T05:01:50;99192.31;;;19.17;98.32
59487;BME280;45298;54.918;73.504;2022-07-29T05:04:18;99206.56;;;19.26;97.82
59487;BME280;45298;54.918;73.504;2022-07-29T05:06:48;99205.91;;;19.32;97.64
59487;BME280;45298;54.918;73.504;2022-07-29T05:09:16;99207.03;;;19.38;97.09
59487;BME280;45298;54.918;73.504;2022-07-29T05:11:45;99203.81;;;19.51;97.03
59487;BME280;45298;54.918;73.504;2022-07-29T05:14:14;99210.00;;;19.59;96.68
59487;BME280;45298;54.918;73.504;2022-07-29T05:16:46;99212.09;;;19.81;95.58
59487;BME280;45298;54.918;73.504;2022-07-29T05:19:15;99193.28;;;19.81;95.00
59487;BME280;45298;54.918;73.504;2022-07-29T05:21:44;99198.81;;;19.87;94.57
59487;BME280;45298;54.918;73.504;2022-07-29T05:24:13;99215.34;;;20.07;93.96
59487;BME280;45298;54.918;73.504;2022-07-29T05:26:42;99215.72;;;20.28;93.12
59487;BME280;45298;54.918;73.504;2022-07-29T05:29:11;99205.44;;;20.31;92.72
59487;BME280;45298;54.918;73.504;2022-07-29T05:32:00;99216.44;;;20.68;91.90
59487;BME280;45298;54.918;73.504;2022-07-29T05:34:29;99203.03;;;20.60;90.58
59487;BME280;45298;54.918;73.504;2022-07-29T05:36:57;99211.66;;;20.70;90.82
59487;BME280;45298;54.918;73.504;2022-07-29T05:39:26;99202.31;;;20.66;90.06
59487;BME280;45298;54.918;73.504;2022-07-29T05:42:15;99218.00;;;20.86;89.57
59487;BME280;45298;54.918;73.504;2022-07-29T05:44:44;99202.75;;;20.93;90.32
59487;BME280;45298;54.918;73.504;2022-07-29T05:47:12;99213.75;;;21.06;89.88
59487;BME280;45298;54.918;73.504;2022-07-29T05:49:45;99216.06;;;21.09;89.18
59487;BME280;45298;54.918;73.504;2022-07-29T05:52:14;99212.81;;;21.29;89.02
59487;BME280;45298;54.918;73.504;2022-07-29T05:54:43;99191.34;;;21.36;88.48
59487;BME280;45298;54.918;73.504;2022-07-29T05:57:17;99206.78;;;21.57;87.73
59487;BME280;45298;54.918;73.504;2022-07-29T05:59:46;99209.09;;;21.60;87.22
59487;BME280;45298;54.918;73.504;2022-07-29T06:02:15;99216.00;;;21.78;86.99
59487;BME280;45298;54.918;73.504;2022-07-29T06:04:44;99221.38;;;21.78;85.88
59487;BME280;45298;54.918;73.504;2022-07-29T06:07:13;99214.75;;;21.80;86.01
59487;BME280;45298;54.918;73.504;2022-07-29T06:09:42;99215.53;;;21.74;85.96
59487;BME280;45298;54.918;73.504;2022-07-29T06:12:10;99218.91;;;21.61;86.03
59487;BME280;45298;54.918;73.504;2022-07-29T06:14:39;99221.66;;;21.53;86.52
59487;BME280;45298;54.918;73.504;2022-07-29T06:17:08;99220.81;;;21.37;86.70
59487;BME280;45298;54.918;73.504;2022-07-29T06:19:37;99227.59;;;21.33;86.87
59487;BME280;45298;54.918;73.504;2022-07-29T06:22:06;99212.72;;;21.22;86.85
59487;BME280;45298;54.918;73.504;2022-07-29T06:24:36;99204.47;;;21.24;87.21
59487;BME280;45298;54.918;73.504;2022-07-29T06:27:05;99236.81;;;21.39;87.01
59487;BME280;45298;54.918;73.504;2022-07-29T06:29:34;99218.88;;;21.46;87.52
59487;BME280;45298;54.918;73.504;2022-07-29T06:32:03;99227.53;;;21.56;87.66
59487;BME280;45298;54.918;73.504;2022-07-29T06:34:32;99216.84;;;21.63;87.79
59487;BME280;45298;54.918;73.504;2022-07-29T06:37:06;99234.31;;;21.67;86.44
59487;BME280;45298;54.918;73.504;2022-07-29T06:39:42;99220.56;;;21.62;87.51
59487;BME280;45298;54.918;73.504;2022-07-29T06:42:10;99212.72;;;21.67;86.65
59487;BME280;45298;54.918;73.504;2022-07-29T06:44:41;99218.38;;;22.02;86.22
59487;BME280;45298;54.918;73.504;2022-07-29T06:47:10;99231.22;;;22.59;86.58
59487;BME280;45298;54.918;73.504;2022-07-29T06:49:38;99216.03;;;22.86;84.33
59487;BME280;45298;54.918;73.504;2022-07-29T06:52:07;99205.16;;;23.01;82.76
59487;BME280;45298;54.918;73.504;2022-07-29T06:54:36;99213.91;;;23.03;81.69
59487;BME280;45298;54.918;73.504;2022-07-29T06:57:04;99226.97;;;23.21;81.65
59487;BME280;45298;54.918;73.504;2022-07-29T06:59:33;99214.06;;;23.23;81.94
59487;BME280;45298;54.918;73.504;2022-07-29T07:02:02;99220.91;;;23.54;80.83
59487;BME280;45298;54.918;73.504;2022-07-29T07:04:31;99196.91;;;23.45;79.84
59487;BME280;45298;54.918;73.504;2022-07-29T07:07:00;99218.84;;;23.57;80.70
59487;BME280;45298;54.918;73.504;2022-07-29T07:09:29;99213.69;;;23.68;81.24
59487;BME280;45298;54.918;73.504;2022-07-29T07:12:08;99221.13;;;24.08;77.92
59487;BME280;45298;54.918;73.504;2022-07-29T07:14:37;99208.88;;;24.19;77.86
59487;BME280;45298;54.918;73.504;2022-07-29T07:17:06;99206.41;;;24.31;77.16
59487;BME280;45298;54.918;73.504;2022-07-29T07:19:35;99205.19;;;24.54;76.97
59487;BME280;45298;54.918;73.504;2022-07-29T07:22:04;99201.84;;;24.65;75.07
59487;BME280;45298;54.918;73.504;2022-07-29T07:24:32;99182.84;;;24.65;74.19
59487;BME280;45298;54.918;73.504;2022-07-29T07:27:01;99205.41;;;24.99;74.53
59487;BME280;45298;54.918;73.504;2022-07-29T07:29:30;99230.44;;;24.88;73.59
59487;BME280;45298;54.918;73.504;2022-07-29T07:31:58;99201.66;;;24.87;71.82
59487;BME280;45298;54.918;73.504;2022-07-29T07:34:28;99209.16;;;24.92;72.04
59487;BME280;45298;54.918;73.504;2022-07-29T07:36:58;99215.44;;;24.85;72.00
59487;BME280;45298;54.918;73.504;2022-07-29T07:39:27;99205.00;;;25.09;72.01
59487;BME280;45298;54.918;73.504;2022-07-29T07:41:55;99220.78;;;25.32;70.94
59487;BME280;45298;54.918;73.504;2022-07-29T07:44:24;99201.38;;;25.42;69.27
59487;BME280;45298;54.918;73.504;2022-07-29T07:46:53;99206.31;;;25.65;70.91
59487;BME280;45298;54.918;73.504;2022-07-29T07:49:21;99201.13;;;25.50;71.92
59487;BME280;45298;54.918;73.504;2022-07-29T07:51:50;99214.72;;;25.50;68.96
59487;BME280;45298;54.918;73.504;2022-07-29T07:54:20;99210.94;;;25.52;69.19
59487;BME280;45298;54.918;73.504;2022-07-29T07:56:49;99198.84;;;25.54;69.79
59487;BME280;45298;54.918;73.504;2022-07-29T07:59:19;99195.97;;;25.22;71.01
59487;BME280;45298;54.918;73.504;2022-07-29T08:01:49;99206.22;;;25.07;71.91
59487;BME280;45298;54.918;73.504;2022-07-29T08:04:23;99186.41;;;25.13;69.57
59487;BME280;45298;54.918;73.504;2022-07-29T08:06:57;99207.69;;;25.16;70.42
59487;BME280;45298;54.918;73.504;2022-07-29T08:09:26;99191.84;;;24.93;69.54
59487;BME280;45298;54.918;73.504;2022-07-29T08:11:59;99206.88;;;24.82;71.10
59487;BME280;45298;54.918;73.504;2022-07-29T08:14:28;99204.53;;;25.12;70.85
59487;BME280;45298;54.918;73.504;2022-07-29T08:16:56;99193.75;;;24.85;70.54
59487;BME280;45298;54.918;73.504;2022-07-29T08:19:25;99226.69;;;24.76;70.26
59487;BME280;45298;54.918;73.504;2022-07-29T08:21:54;99206.22;;;24.46;70.91
59487;BME280;45298;54.918;73.504;2022-07-29T08:24:23;99211.63;;;24.39;71.80
59487;BME280;45298;54.918;73.504;2022-07-29T08:27:10;99205.78;;;24.42;73.23
59487;BME280;45298;54.918;73.504;2022-07-29T08:29:59;99198.28;;;24.44;72.27
59487;BME280;45298;54.918;73.504;2022-07-29T08:32:28;99202.88;;;24.51;71.25
59487;BME280;45298;54.918;73.504;2022-07-29T08:35:16;99195.63;;;24.71;70.07
59487;BME280;45298;54.918;73.504;2022-07-29T08:37:45;99201.84;;;25.05;69.05
59487;BME280;45298;54.918;73.504;2022-07-29T08:40:14;99190.50;;;25.49;67.55
59487;BME280;45298;54.918;73.504;2022-07-29T08:42:43;99191.84;;;25.78;67.72
59487;BME280;45298;54.918;73.504;2022-07-29T08:45:12;99205.47;;;25.72;66.61
59487;BME280;45298;54.918;73.504;2022-07-29T08:47:44;99194.00;;;25.63;67.39
59487;BME280;45298;54.918;73.504;2022-07-29T08:50:13;99194.47;;;25.53;66.26
59487;BME280;45298;54.918;73.504;2022-07-29T08:52:42;99219.03;;;25.72;66.17
59487;BME280;45298;54.918;73.504;2022-07-29T08:55:15;99207.69;;;25.88;64.76
59487;BME280;45298;54.918;73.504;2022-07-29T08:57:48;99195.97;;;25.94;64.43
59487;BME280;45298;54.918;73.504;2022-07-29T09:00:25;99200.50;;;26.07;64.27
59487;BME280;45298;54.918;73.504;2022-07-29T09:02:57;99209.19;;;26.23;66.33
59487;BME280;45298;54.918;73.504;2022-07-29T09:05:27;99197.47;;;26.22;63.94
59487;BME280;45298;54.918;73.504;2022-07-29T09:07:56;99197.72;;;26.21;63.88
59487;BME280;45298;54.918;73.504;2022-07-29T09:10:26;99206.69;;;26.21;63.32
59487;BME280;45298;54.918;73.504;2022-07-29T09:12:54;99193.13;;;26.15;64.50
59487;BME280;45298;54.918;73.504;2022-07-29T09:15:23;99195.81;;;26.21;64.34
59487;BME280;45298;54.918;73.504;2022-07-29T09:17:52;99215.78;;;26.40;64.21
59487;BME280;45298;54.918;73.504;2022-07-29T09:20:23;99202.38;;;26.39;63.55
59487;BME280;45298;54.918;73.504;2022-07-29T09:22:53;99151.97;;;26.11;64.22
59487;BME280;45298;54.918;73.504;2022-07-29T09:25:39;99199.09;;;26.37;64.08
59487;BME280;45298;54.918;73.504;2022-07-29T09:28:14;99182.34;;;26.33;65.08
59487;BME280;45298;54.918;73.504;2022-07-29T09:30:53;99205.56;;;26.36;64.49
59487;BME280;45298;54.918;73.504;2022-07-29T09:33:23;99175.75;;;26.22;65.17
59487;BME280;45298;54.918;73.504;2022-07-29T09:35:59;99198.81;;;26.13;64.32
59487;BME280;45298;54.918;73.504;2022-07-29T09:38:31;99206.41;;;25.98;65.09
59487;BME280;45298;54.918;73.504;2022-07-29T09:41:01;99205.97;;;25.94;65.40
59487;BME280;45298;54.918;73.504;2022-07-29T09:43:33;99200.56;;;25.87;66.21
59487;BME280;45298;54.918;73.504;2022-07-29T09:46:14;99179.00;;;25.54;66.14
59487;BME280;45298;54.918;73.504;2022-07-29T09:48:43;99187.50;;;25.71;67.55
59487;BME280;45298;54.918;73.504;2022-07-29T09:51:18;99135.16;;;25.50;65.87
59487;BME280;45298;54.918;73.504;2022-07-29T09:53:58;99190.09;;;25.98;65.03
59487;BME280;45298;54.918;73.504;2022-07-29T09:56:41;99190.13;;;25.84;64.39
59487;BME280;45298;54.918;73.504;2022-07-29T09:59:10;99220.50;;;25.68;65.04
59487;BME280;45298;54.918;73.504;2022-07-29T10:01:41;99210.78;;;25.26;66.79
59487;BME280;45298;54.918;73.504;2022-07-29T10:04:10;99201.25;;;24.90;67.91
59487;BME280;45298;54.918;73.504;2022-07-29T10:06:59;99215.59;;;24.57;69.49
59487;BME280;45298;54.918;73.504;2022-07-29T10:09:32;99202.03;;;24.43;70.02
59487;BME280;45298;54.918;73.504;2022-07-29T10:12:07;99199.13;;;24.32;71.27
59487;BME280;45298;54.918;73.504;2022-07-29T10:14:37;99219.31;;;24.29;71.71
59487;BME280;45298;54.918;73.504;2022-07-29T10:17:08;99200.09;;;24.17;72.09
59487;BME280;45298;54.918;73.504;2022-07-29T10:19:38;99221.38;;;24.13;71.99
59487;BME280;45298;54.918;73.504;2022-07-29T10:22:10;99211.97;;;24.03;71.57
59487;BME280;45298;54.918;73.504;2022-07-29T10:24:39;99181.84;;;23.77;72.06
59487;BME280;45298;54.918;73.504;2022-07-29T10:27:08;99211.25;;;23.87;72.39
59487;BME280;45298;54.918;73.504;2022-07-29T10:29:37;99206.38;;;23.69;72.65
59487;BME280;45298;54.918;73.504;2022-07-29T10:43:49;99203.75;;;23.41;73.87
59487;BME280;45298;54.918;73.504;2022-07-29T10:46:18;99205.41;;;23.42;73.85
59487;BME280;45298;54.918;73.504;2022-07-29T10:49:21;99206.28;;;23.42;74.33
59487;BME280;45298;54.918;73.504;2022-07-29T10:57:27;99205.84;;;23.45;74.19
59487;BME280;45298;54.918;73.504;2022-07-29T11:02:47;99195.56;;;23.69;73.64
59487;BME280;45298;54.918;73.504;2022-07-29T11:05:20;99191.44;;;23.87;73.44
59487;BME280;45298;54.918;73.504;2022-07-29T11:11:30;99204.13;;;24.41;69.75
59487;BME280;45298;54.918;73.504;2022-07-29T11:16:18;99191.22;;;24.70;69.59
59487;BME280;45298;54.918;73.504;2022-07-29T11:21:44;99200.84;;;24.80;69.68
59487;BME280;45298;54.918;73.504;2022-07-29T11:24:28;99206.06;;;24.74;69.64
59487;BME280;45298;54.918;73.504;2022-07-29T11:27:16;99207.88;;;24.60;70.25
59487;BME280;45298;54.918;73.504;2022-07-29T11:29:54;99218.28;;;24.37;69.18
59487;BME280;45298;54.918;73.504;2022-07-29T11:32:25;99216.59;;;24.22;69.64
59487;BME280;45298;54.918;73.504;2022-07-29T11:35:23;99230.53;;;24.12;70.30
59487;BME280;45298;54.918;73.504;2022-07-29T11:38:25;99233.66;;;24.09;69.02
59487;BME280;45298;54.918;73.504;2022-07-29T11:43:52;99236.81;;;24.20;68.64
59487;BME280;45298;54.918;73.504;2022-07-29T11:49:26;99213.25;;;24.20;68.34
59487;BME280;45298;54.918;73.504;2022-07-29T11:52:00;99227.44;;;24.22;67.91
59487;BME280;45298;54.918;73.504;2022-07-29T11:54:33;99230.16;;;24.29;68.69
59487;BME280;45298;54.918;73.504;2022-07-29T11:57:23;99227.84;;;24.19;68.08
59487;BME280;45298;54.918;73.504;2022-07-29T12:02:51;99233.91;;;24.28;67.72
59487;BME280;45298;54.918;73.504;2022-07-29T12:05:20;99223.28;;;24.20;67.16
59487;BME280;45298;54.918;73.504;2022-07-29T12:08:10;99238.50;;;24.34;66.72
59487;BME280;45298;54.918;73.504;2022-07-29T12:10:42;99228.72;;;24.33;65.93
59487;BME280;45298;54.918;73.504;2022-07-29T12:13:12;99237.06;;;24.45;65.39
59487;BME280;45298;54.918;73.504;2022-07-29T12:15:42;99215.13;;;24.20;65.25
59487;BME280;45298;54.918;73.504;2022-07-29T12:18:16;99245.75;;;24.20;66.39
59487;BME280;45298;54.918;73.504;2022-07-29T12:20:58;99238.63;;;23.99;66.92
59487;BME280;45298;54.918;73.504;2022-07-29T12:23:31;99246.56;;;24.07;66.07
59487;BME280;45298;54.918;73.504;2022-07-29T12:26:05;99273.25;;;24.17;65.41
59487;BME280;45298;54.918;73.504;2022-07-29T12:28:48;99259.28;;;24.13;64.88
59487;BME280;45298;54.918;73.504;2022-07-29T12:31:17;99258.25;;;24.08;65.09
59487;BME280;45298;54.918;73.504;2022-07-29T12:34:06;99249.47;;;23.99;65.02
59487;BME280;45298;54.918;73.504;2022-07-29T12:36:36;99271.34;;;24.04;64.95
59487;BME280;45298;54.918;73.504;2022-07-29T12:39:06;99264.03;;;23.98;65.69
59487;BME280;45298;54.918;73.504;2022-07-29T12:41:35;99267.56;;;23.98;65.87
59487;BME280;45298;54.918;73.504;2022-07-29T12:44:03;99258.41;;;23.99;65.81
59487;BME280;45298;54.918;73.504;2022-07-29T12:46:32;99273.56;;;23.94;65.33
59487;BME280;45298;54.918;73.504;2022-07-29T12:49:01;99273.78;;;23.92;64.98
59487;BME280;45298;54.918;73.504;2022-07-29T12:51:31;99292.09;;;23.90;65.08
59487;BME280;45298;54.918;73.504;2022-07-29T12:54:14;99274.69;;;23.71;65.34
59487;BME280;45298;54.918;73.504;2022-07-29T12:56:44;99285.09;;;23.67;65.20
59487;BME280;45298;54.918;73.504;2022-07-29T12:59:17;99295.75;;;23.76;65.93
59487;BME280;45298;54.918;73.504;2022-07-29T13:01:48;99297.41;;;23.77;65.92
59487;BME280;45298;54.918;73.504;2022-07-29T13:04:32;99314.31;;;23.79;65.42
59487;BME280;45298;54.918;73.504;2022-07-29T13:07:06;99298.03;;;23.72;65.33
59487;BME280;45298;54.918;73.504;2022-07-29T13:09:46;99314.06;;;23.74;65.25
59487;BME280;45298;54.918;73.504;2022-07-29T13:12:14;99307.97;;;23.65;64.49
59487;BME280;45298;54.918;73.504;2022-07-29T13:14:45;99317.97;;;23.64;64.43
59487;BME280;45298;54.918;73.504;2022-07-29T13:17:19;99315.19;;;23.51;64.72
59487;BME280;45298;54.918;73.504;2022-07-29T13:19:49;99325.53;;;23.41;65.68
59487;BME280;45298;54.918;73.504;2022-07-29T13:22:23;99321.81;;;23.48;65.64
59487;BME280;45298;54.918;73.504;2022-07-29T13:24:54;99321.59;;;23.43;65.39
59487;BME280;45298;54.918;73.504;2022-07-29T13:27:26;99327.00;;;23.43;65.79
59487;BME280;45298;54.918;73.504;2022-07-29T13:29:56;99316.19;;;23.43;65.83
59487;BME280;45298;54.918;73.504;2022-07-29T13:32:27;99313.22;;;23.38;65.67
59487;BME280;45298;54.918;73.504;2022-07-29T13:34:57;99320.72;;;23.36;65.87
59487;BME280;45298;54.918;73.504;2022-07-29T13:37:28;99337.97;;;23.35;64.97
59487;BME280;45298;54.918;73.504;2022-07-29T13:39:57;99351.44;;;23.28;64.33
59487;BME280;45298;54.918;73.504;2022-07-29T13:42:27;99347.66;;;23.22;64.16
59487;BME280;45298;54.918;73.504;2022-07-29T13:44:56;99337.53;;;23.09;64.13
59487;BME280;45298;54.918;73.504;2022-07-29T13:47:24;99335.22;;;23.06;63.81
59487;BME280;45298;54.918;73.504;2022-07-29T13:50:00;99344.47;;;22.97;64.03
59487;BME280;45298;54.918;73.504;2022-07-29T13:52:31;99336.94;;;22.92;65.21
59487;BME280;45298;54.918;73.504;2022-07-29T13:55:01;99339.84;;;22.91;65.31
59487;BME280;45298;54.918;73.504;2022-07-29T13:57:30;99321.38;;;22.73;65.50
59487;BME280;45298;54.918;73.504;2022-07-29T13:59:59;99335.53;;;22.75;65.99
59487;BME280;45298;54.918;73.504;2022-07-29T14:02:34;99325.78;;;22.59;66.63
59487;BME280;45298;54.918;73.504;2022-07-29T14:05:04;99323.41;;;22.49;65.93
59487;BME280;45298;54.918;73.504;2022-07-29T14:07:36;99332.53;;;22.48;66.26
59487;BME280;45298;54.918;73.504;2022-07-29T14:10:07;99344.38;;;22.47;66.34
59487;BME280;45298;54.918;73.504;2022-07-29T14:12:35;99333.47;;;22.40;66.94
59487;BME280;45298;54.918;73.504;2022-07-29T14:15:04;99309.28;;;22.17;66.94